sensor_id;sensor_type;location;lat;lon;timestamp;P1;durP1;ratioP1;P2;durP2;ratioP2
17363;SDS011;8799;43.594;13.526;2023-03-13T00:00:57;3.73;;;1.93;;
17363;SDS011;8799;43.594;13.526;2023-03-13T00:03:26;6.60;;;1.90;;
17363;SDS011;8799;43.594;13.526;2023-03-13T00:05:55;3.60;;;1.83;;
17363;SDS011;8799;43.594;13.526;2023-03-13T00:08:23;3.07;;;1.90;;
17363;SDS011;8799;43.594;13.526;2023-03-13T00:10:55;3.60;;;1.77;;
17363;SDS011;8799;43.594;13.526;2023-03-13T00:13:24;4.10;;;1.93;;
17363;SDS011;8799;43.594;13.526;2023-03-13T00:15:59;5.37;;;2.17;;
17363;SDS011;8799;43.594;13.526;2023-03-13T00:18:28;4.37;;;1.93;;
17363;SDS011;8799;43.594;13.526;2023-03-13T00:20:59;6.47;;;2.57;;
17363;SDS011;8799;43.594;13.526;2023-03-13T00:23:28;3.77;;;1.60;;
17363;SDS011;8799;43.594;13.526;2023-03-13T00:25:57;3.27;;;1.93;;
17363;SDS011;8799;43.594;13.526;2023-03-13T00:28:26;2.90;;;1.70;;
17363;SDS011;8799;43.594;13.526;2023-03-13T00:31:02;2.87;;;2.07;;
17363;SDS011;8799;43.594;13.526;2023-03-13T00:33:31;4.80;;;1.77;;
17363;SDS011;8799;43.594;13.526;2023-03-13T00:35:59;3.73;;;1.80;;
17363;SDS011;8799;43.594;13.526;2023-03-13T00:38:28;5.20;;;2.10;;
17363;SDS011;8799;43.594;13.526;2023-03-13T00:40:57;3.93;;;2.03;;
17363;SDS011;8799;43.594;13.526;2023-03-13T00:43:26;5.27;;;2.50;;
17363;SDS011;8799;43.594;13.526;2023-03-13T00:45:54;4.57;;;2.10;;
17363;SDS011;8799;43.594;13.526;2023-03-13T00:48:26;4.47;;;2.03;;
17363;SDS011;8799;43.594;13.526;2023-03-13T00:50:54;5.33;;;2.20;;
17363;SDS011;8799;43.594;13.526;2023-03-13T00:53:22;4.67;;;2.10;;
17363;SDS011;8799;43.594;13.526;2023-03-13T00:55:51;4.47;;;1.90;;
17363;SDS011;8799;43.594;13.526;2023-03-13T00:58:20;5.23;;;2.40;;
17363;SDS011;8799;43.594;13.526;2023-03-13T01:00:49;3.37;;;1.90;;
17363;SDS011;8799;43.594;13.526;2023-03-13T01:03:17;6.03;;;1.87;;
17363;SDS011;8799;43.594;13.526;2023-03-13T01:05:55;4.03;;;2.07;;
17363;SDS011;8799;43.594;13.526;2023-03-13T01:08:23;5.47;;;2.00;;
17363;SDS011;8799;43.594;13.526;2023-03-13T01:10:56;3.30;;;1.80;;
17363;SDS011;8799;43.594;13.526;2023-03-13T01:13:25;8.00;;;2.00;;
17363;SDS011;8799;43.594;13.526;2023-03-13T01:15:53;6.63;;;2.17;;
17363;SDS011;8799;43.594;13.526;2023-03-13T01:18:22;4.27;;;1.90;;
17363;SDS011;8799;43.594;13.526;2023-03-13T01:20:50;5.77;;;2.17;;
17363;SDS011;8799;43.594;13.526;2023-03-13T01:23:20;5.53;;;2.17;;
17363;SDS011;8799;43.594;13.526;2023-03-13T01:25:48;3.57;;;1.70;;
17363;SDS011;8799;43.594;13.526;2023-03-13T01:28:16;3.33;;;1.87;;
17363;SDS011;8799;43.594;13.526;2023-03-13T01:30:45;2.13;;;1.67;;
17363;SDS011;8799;43.594;13.526;2023-03-13T01:33:13;4.77;;;2.10;;
17363;SDS011;8799;43.594;13.526;2023-03-13T01:35:41;4.57;;;2.20;;
17363;SDS011;8799;43.594;13.526;2023-03-13T01:38:10;3.63;;;2.10;;
17363;SDS011;8799;43.594;13.526;2023-03-13T01:40:44;4.60;;;2.10;;
17363;SDS011;8799;43.594;13.526;2023-03-13T01:43:19;4.57;;;2.10;;
17363;SDS011;8799;43.594;13.526;2023-03-13T01:45:58;4.70;;;1.83;;
17363;SDS011;8799;43.594;13.526;2023-03-13T01:48:30;3.37;;;2.10;;
17363;SDS011;8799;43.594;13.526;2023-03-13T01:51:03;3.50;;;1.87;;
17363;SDS011;8799;43.594;13.526;2023-03-13T01:53:34;3.07;;;1.83;;
17363;SDS011;8799;43.594;13.526;2023-03-13T01:56:07;3.53;;;2.10;;
17363;SDS011;8799;43.594;13.526;2023-03-13T01:58:40;3.03;;;2.07;;
17363;SDS011;8799;43.594;13.526;2023-03-13T02:01:09;5.67;;;2.17;;
17363;SDS011;8799;43.594;13.526;2023-03-13T02:03:37;4.27;;;2.30;;
17363;SDS011;8799;43.594;13.526;2023-03-13T02:06:05;2.63;;;1.87;;
17363;SDS011;8799;43.594;13.526;2023-03-13T02:08:35;5.70;;;2.20;;
17363;SDS011;8799;43.594;13.526;2023-03-13T02:11:09;4.20;;;2.07;;
17363;SDS011;8799;43.594;13.526;2023-03-13T02:13:45;3.73;;;2.10;;
17363;SDS011;8799;43.594;13.526;2023-03-13T02:16:14;3.77;;;1.93;;
17363;SDS011;8799;43.594;13.526;2023-03-13T02:18:43;4.47;;;2.27;;
17363;SDS011;8799;43.594;13.526;2023-03-13T02:21:14;5.13;;;2.10;;
17363;SDS011;8799;43.594;13.526;2023-03-13T02:23:50;4.43;;;2.43;;
17363;SDS011;8799;43.594;13.526;2023-03-13T02:26:28;5.17;;;2.13;;
17363;SDS011;8799;43.594;13.526;2023-03-13T02:28:56;3.47;;;1.93;;
17363;SDS011;8799;43.594;13.526;2023-03-13T02:31:24;3.23;;;2.07;;
17363;SDS011;8799;43.594;13.526;2023-03-13T02:33:52;3.17;;;1.90;;
17363;SDS011;8799;43.594;13.526;2023-03-13T02:36:21;4.87;;;2.20;;
17363;SDS011;8799;43.594;13.526;2023-03-13T02:38:50;3.80;;;1.90;;
17363;SDS011;8799;43.594;13.526;2023-03-13T02:41:22;4.90;;;2.43;;
17363;SDS011;8799;43.594;13.526;2023-03-13T02:43:53;3.80;;;2.40;;
17363;SDS011;8799;43.594;13.526;2023-03-13T02:46:21;3.83;;;2.27;;
17363;SDS011;8799;43.594;13.526;2023-03-13T02:48:49;4.63;;;2.20;;
17363;SDS011;8799;43.594;13.526;2023-03-13T02:51:19;4.30;;;2.00;;
17363;SDS011;8799;43.594;13.526;2023-03-13T02:53:51;4.27;;;2.40;;
17363;SDS011;8799;43.594;13.526;2023-03-13T02:56:23;5.07;;;2.20;;
17363;SDS011;8799;43.594;13.526;2023-03-13T02:58:55;7.07;;;2.30;;
17363;SDS011;8799;43.594;13.526;2023-03-13T03:01:22;4.13;;;2.10;;
17363;SDS011;8799;43.594;13.526;2023-03-13T03:03:51;3.63;;;2.27;;
17363;SDS011;8799;43.594;13.526;2023-03-13T03:06:18;5.43;;;2.23;;
17363;SDS011;8799;43.594;13.526;2023-03-13T03:08:48;5.43;;;2.20;;
17363;SDS011;8799;43.594;13.526;2023-03-13T03:11:17;4.27;;;2.10;;
17363;SDS011;8799;43.594;13.526;2023-03-13T03:13:49;4.97;;;1.80;;
17363;SDS011;8799;43.594;13.526;2023-03-13T03:16:19;2.70;;;1.83;;
17363;SDS011;8799;43.594;13.526;2023-03-13T03:18:47;6.60;;;2.00;;
17363;SDS011;8799;43.594;13.526;2023-03-13T03:21:15;4.00;;;2.00;;
17363;SDS011;8799;43.594;13.526;2023-03-13T03:23:44;3.67;;;2.00;;
17363;SDS011;8799;43.594;13.526;2023-03-13T03:26:12;5.60;;;2.37;;
17363;SDS011;8799;43.594;13.526;2023-03-13T03:28:40;3.50;;;1.87;;
17363;SDS011;8799;43.594;13.526;2023-03-13T03:31:09;4.07;;;1.97;;
17363;SDS011;8799;43.594;13.526;2023-03-13T03:33:40;4.93;;;2.23;;
17363;SDS011;8799;43.594;13.526;2023-03-13T03:36:10;3.73;;;1.80;;
17363;SDS011;8799;43.594;13.526;2023-03-13T03:38:40;4.70;;;2.20;;
17363;SDS011;8799;43.594;13.526;2023-03-13T03:41:12;4.03;;;2.27;;
17363;SDS011;8799;43.594;13.526;2023-03-13T03:43:40;4.27;;;2.23;;
17363;SDS011;8799;43.594;13.526;2023-03-13T03:46:08;3.93;;;2.30;;
17363;SDS011;8799;43.594;13.526;2023-03-13T03:48:36;3.03;;;1.80;;
17363;SDS011;8799;43.594;13.526;2023-03-13T03:51:06;5.33;;;2.40;;
17363;SDS011;8799;43.594;13.526;2023-03-13T03:53:34;4.87;;;2.23;;
17363;SDS011;8799;43.594;13.526;2023-03-13T03:56:02;3.37;;;1.90;;
17363;SDS011;8799;43.594;13.526;2023-03-13T03:58:31;6.77;;;2.00;;
17363;SDS011;8799;43.594;13.526;2023-03-13T04:01:00;7.77;;;2.17;;
17363;SDS011;8799;43.594;13.526;2023-03-13T04:03:32;7.67;;;1.97;;
17363;SDS011;8799;43.594;13.526;2023-03-13T04:06:00;2.13;;;1.80;;
17363;SDS011;8799;43.594;13.526;2023-03-13T04:08:29;5.40;;;2.37;;
17363;SDS011;8799;43.594;13.526;2023-03-13T04:10:58;5.10;;;2.30;;
17363;SDS011;8799;43.594;13.526;2023-03-13T04:13:27;9.37;;;2.20;;
17363;SDS011;8799;43.594;13.526;2023-03-13T04:15:59;6.23;;;2.40;;
17363;SDS011;8799;43.594;13.526;2023-03-13T04:18:32;6.03;;;2.10;;
17363;SDS011;8799;43.594;13.526;2023-03-13T04:20:59;4.27;;;2.17;;
17363;SDS011;8799;43.594;13.526;2023-03-13T04:23:29;18.30;;;2.40;;
17363;SDS011;8799;43.594;13.526;2023-03-13T04:25:57;2.90;;;1.67;;
17363;SDS011;8799;43.594;13.526;2023-03-13T04:28:26;5.40;;;2.00;;
17363;SDS011;8799;43.594;13.526;2023-03-13T04:30:54;3.93;;;1.97;;
17363;SDS011;8799;43.594;13.526;2023-03-13T04:33:22;3.67;;;2.00;;
17363;SDS011;8799;43.594;13.526;2023-03-13T04:35:53;6.63;;;2.47;;
17363;SDS011;8799;43.594;13.526;2023-03-13T04:38:21;6.17;;;2.47;;
17363;SDS011;8799;43.594;13.526;2023-03-13T04:40:51;4.73;;;1.93;;
17363;SDS011;8799;43.594;13.526;2023-03-13T04:43:24;4.67;;;2.17;;
17363;SDS011;8799;43.594;13.526;2023-03-13T04:45:52;4.90;;;2.10;;
17363;SDS011;8799;43.594;13.526;2023-03-13T04:48:20;2.87;;;1.97;;
17363;SDS011;8799;43.594;13.526;2023-03-13T04:50:49;7.47;;;2.20;;
17363;SDS011;8799;43.594;13.526;2023-03-13T04:53:17;4.47;;;2.23;;
17363;SDS011;8799;43.594;13.526;2023-03-13T04:55:45;4.33;;;2.03;;
17363;SDS011;8799;43.594;13.526;2023-03-13T04:58:15;4.80;;;1.90;;
17363;SDS011;8799;43.594;13.526;2023-03-13T05:00:44;4.03;;;2.03;;
17363;SDS011;8799;43.594;13.526;2023-03-13T05:03:11;3.20;;;2.03;;
17363;SDS011;8799;43.594;13.526;2023-03-13T05:05:40;8.93;;;2.77;;
17363;SDS011;8799;43.594;13.526;2023-03-13T05:08:08;4.60;;;1.90;;
17363;SDS011;8799;43.594;13.526;2023-03-13T05:10:36;6.10;;;2.10;;
17363;SDS011;8799;43.594;13.526;2023-03-13T05:13:05;3.13;;;1.93;;
17363;SDS011;8799;43.594;13.526;2023-03-13T05:15:34;9.10;;;2.50;;
17363;SDS011;8799;43.594;13.526;2023-03-13T05:18:02;8.60;;;2.53;;
17363;SDS011;8799;43.594;13.526;2023-03-13T05:20:30;5.37;;;2.23;;
17363;SDS011;8799;43.594;13.526;2023-03-13T05:22:59;4.50;;;2.30;;
17363;SDS011;8799;43.594;13.526;2023-03-13T05:25:27;3.60;;;1.90;;
17363;SDS011;8799;43.594;13.526;2023-03-13T05:27:55;4.33;;;2.40;;
17363;SDS011;8799;43.594;13.526;2023-03-13T05:30:24;9.47;;;2.70;;
17363;SDS011;8799;43.594;13.526;2023-03-13T05:32:53;4.93;;;1.93;;
17363;SDS011;8799;43.594;13.526;2023-03-13T05:35:21;6.10;;;2.47;;
17363;SDS011;8799;43.594;13.526;2023-03-13T05:37:50;2.80;;;1.80;;
17363;SDS011;8799;43.594;13.526;2023-03-13T05:40:18;3.43;;;1.97;;
17363;SDS011;8799;43.594;13.526;2023-03-13T05:42:47;4.77;;;2.20;;
17363;SDS011;8799;43.594;13.526;2023-03-13T05:45:15;7.37;;;2.60;;
17363;SDS011;8799;43.594;13.526;2023-03-13T05:47:43;6.30;;;2.53;;
17363;SDS011;8799;43.594;13.526;2023-03-13T05:50:12;4.90;;;2.30;;
17363;SDS011;8799;43.594;13.526;2023-03-13T05:52:40;4.87;;;2.50;;
17363;SDS011;8799;43.594;13.526;2023-03-13T05:55:08;8.50;;;2.30;;
17363;SDS011;8799;43.594;13.526;2023-03-13T05:57:37;6.50;;;2.50;;
17363;SDS011;8799;43.594;13.526;2023-03-13T06:00:06;4.53;;;2.50;;
17363;SDS011;8799;43.594;13.526;2023-03-13T06:02:36;4.70;;;2.40;;
17363;SDS011;8799;43.594;13.526;2023-03-13T06:05:05;5.23;;;2.10;;
17363;SDS011;8799;43.594;13.526;2023-03-13T06:07:35;8.27;;;2.20;;
17363;SDS011;8799;43.594;13.526;2023-03-13T06:10:04;8.80;;;2.20;;
17363;SDS011;8799;43.594;13.526;2023-03-13T06:12:33;6.57;;;2.10;;
17363;SDS011;8799;43.594;13.526;2023-03-13T06:15:00;2.97;;;1.70;;
17363;SDS011;8799;43.594;13.526;2023-03-13T06:17:28;2.63;;;1.90;;
17363;SDS011;8799;43.594;13.526;2023-03-13T06:19:56;6.80;;;2.43;;
17363;SDS011;8799;43.594;13.526;2023-03-13T06:22:25;9.13;;;2.30;;
17363;SDS011;8799;43.594;13.526;2023-03-13T06:24:55;8.63;;;2.53;;
17363;SDS011;8799;43.594;13.526;2023-03-13T06:27:24;6.90;;;2.27;;
17363;SDS011;8799;43.594;13.526;2023-03-13T06:29:52;8.20;;;2.43;;
17363;SDS011;8799;43.594;13.526;2023-03-13T06:32:20;6.13;;;2.20;;
17363;SDS011;8799;43.594;13.526;2023-03-13T06:34:47;7.70;;;2.30;;
17363;SDS011;8799;43.594;13.526;2023-03-13T06:37:15;16.37;;;3.07;;
17363;SDS011;8799;43.594;13.526;2023-03-13T06:39:43;9.53;;;2.77;;
17363;SDS011;8799;43.594;13.526;2023-03-13T06:42:12;15.83;;;2.80;;
17363;SDS011;8799;43.594;13.526;2023-03-13T06:44:40;4.77;;;2.50;;
17363;SDS011;8799;43.594;13.526;2023-03-13T06:47:12;6.53;;;2.60;;
17363;SDS011;8799;43.594;13.526;2023-03-13T06:49:43;5.70;;;2.43;;
17363;SDS011;8799;43.594;13.526;2023-03-13T06:52:11;7.53;;;3.20;;
17363;SDS011;8799;43.594;13.526;2023-03-13T06:54:39;6.67;;;2.50;;
17363;SDS011;8799;43.594;13.526;2023-03-13T06:57:06;5.30;;;2.50;;
17363;SDS011;8799;43.594;13.526;2023-03-13T06:59:35;4.00;;;2.13;;
17363;SDS011;8799;43.594;13.526;2023-03-13T07:02:03;2.70;;;1.77;;
17363;SDS011;8799;43.594;13.526;2023-03-13T07:04:31;3.60;;;2.43;;
17363;SDS011;8799;43.594;13.526;2023-03-13T07:06:59;8.67;;;2.30;;
17363;SDS011;8799;43.594;13.526;2023-03-13T07:09:27;7.30;;;2.00;;
17363;SDS011;8799;43.594;13.526;2023-03-13T07:11:56;4.93;;;2.10;;
17363;SDS011;8799;43.594;13.526;2023-03-13T07:14:25;5.90;;;1.90;;
17363;SDS011;8799;43.594;13.526;2023-03-13T07:16:54;4.27;;;2.60;;
17363;SDS011;8799;43.594;13.526;2023-03-13T07:19:25;4.60;;;2.33;;
17363;SDS011;8799;43.594;13.526;2023-03-13T07:21:53;3.50;;;2.10;;
17363;SDS011;8799;43.594;13.526;2023-03-13T07:24:21;5.43;;;2.40;;
17363;SDS011;8799;43.594;13.526;2023-03-13T07:26:50;4.33;;;2.20;;
17363;SDS011;8799;43.594;13.526;2023-03-13T07:29:18;8.80;;;2.30;;
17363;SDS011;8799;43.594;13.526;2023-03-13T07:31:45;3.20;;;2.03;;
17363;SDS011;8799;43.594;13.526;2023-03-13T07:34:17;6.90;;;2.20;;
17363;SDS011;8799;43.594;13.526;2023-03-13T07:36:46;3.10;;;1.83;;
17363;SDS011;8799;43.594;13.526;2023-03-13T07:39:13;7.23;;;2.97;;
17363;SDS011;8799;43.594;13.526;2023-03-13T07:41:41;3.47;;;2.10;;
17363;SDS011;8799;43.594;13.526;2023-03-13T07:44:09;4.90;;;2.17;;
17363;SDS011;8799;43.594;13.526;2023-03-13T07:46:37;4.33;;;1.70;;
17363;SDS011;8799;43.594;13.526;2023-03-13T07:49:05;3.33;;;1.80;;
17363;SDS011;8799;43.594;13.526;2023-03-13T07:51:35;5.10;;;2.10;;
17363;SDS011;8799;43.594;13.526;2023-03-13T07:54:03;4.57;;;1.70;;
17363;SDS011;8799;43.594;13.526;2023-03-13T07:56:31;4.10;;;1.83;;
17363;SDS011;8799;43.594;13.526;2023-03-13T07:59:00;4.40;;;1.97;;
17363;SDS011;8799;43.594;13.526;2023-03-13T08:01:28;5.23;;;1.63;;
17363;SDS011;8799;43.594;13.526;2023-03-13T08:03:57;3.70;;;2.03;;
17363;SDS011;8799;43.594;13.526;2023-03-13T08:06:26;1.60;;;1.50;;
17363;SDS011;8799;43.594;13.526;2023-03-13T08:08:57;2.37;;;1.57;;
17363;SDS011;8799;43.594;13.526;2023-03-13T08:11:26;3.23;;;2.17;;
17363;SDS011;8799;43.594;13.526;2023-03-13T08:13:55;3.47;;;1.90;;
17363;SDS011;8799;43.594;13.526;2023-03-13T08:16:28;4.47;;;1.80;;
17363;SDS011;8799;43.594;13.526;2023-03-13T08:18:58;2.10;;;1.50;;
17363;SDS011;8799;43.594;13.526;2023-03-13T08:21:29;2.67;;;1.70;;
17363;SDS011;8799;43.594;13.526;2023-03-13T08:24:00;1.83;;;1.47;;
17363;SDS011;8799;43.594;13.526;2023-03-13T08:26:31;2.40;;;1.80;;
17363;SDS011;8799;43.594;13.526;2023-03-13T08:29:01;4.50;;;1.93;;
17363;SDS011;8799;43.594;13.526;2023-03-13T08:31:32;3.83;;;1.53;;
17363;SDS011;8799;43.594;13.526;2023-03-13T08:34:01;4.50;;;1.90;;
17363;SDS011;8799;43.594;13.526;2023-03-13T08:36:30;3.13;;;1.80;;
17363;SDS011;8799;43.594;13.526;2023-03-13T08:39:02;4.03;;;1.80;;
17363;SDS011;8799;43.594;13.526;2023-03-13T08:41:32;5.33;;;2.30;;
17363;SDS011;8799;43.594;13.526;2023-03-13T08:44:01;3.57;;;1.87;;
17363;SDS011;8799;43.594;13.526;2023-03-13T08:46:29;4.73;;;2.00;;
17363;SDS011;8799;43.594;13.526;2023-03-13T08:48:58;2.80;;;1.83;;
17363;SDS011;8799;43.594;13.526;2023-03-13T08:51:27;4.63;;;1.87;;
17363;SDS011;8799;43.594;13.526;2023-03-13T08:53:55;4.13;;;1.57;;
17363;SDS011;8799;43.594;13.526;2023-03-13T08:56:26;3.13;;;1.67;;
17363;SDS011;8799;43.594;13.526;2023-03-13T08:58:57;1.30;;;1.20;;
17363;SDS011;8799;43.594;13.526;2023-03-13T09:01:26;3.47;;;1.60;;
17363;SDS011;8799;43.594;13.526;2023-03-13T09:03:56;1.63;;;1.40;;
17363;SDS011;8799;43.594;13.526;2023-03-13T09:06:24;2.67;;;1.50;;
17363;SDS011;8799;43.594;13.526;2023-03-13T09:08:56;2.63;;;1.40;;
17363;SDS011;8799;43.594;13.526;2023-03-13T09:11:23;3.13;;;1.80;;
17363;SDS011;8799;43.594;13.526;2023-03-13T09:13:54;5.90;;;1.80;;
17363;SDS011;8799;43.594;13.526;2023-03-13T09:16:24;3.13;;;1.80;;
17363;SDS011;8799;43.594;13.526;2023-03-13T09:18:53;2.73;;;1.57;;
17363;SDS011;8799;43.594;13.526;2023-03-13T09:21:23;1.60;;;1.50;;
17363;SDS011;8799;43.594;13.526;2023-03-13T09:23:55;4.80;;;1.60;;
17363;SDS011;8799;43.594;13.526;2023-03-13T09:26:24;4.27;;;1.83;;
17363;SDS011;8799;43.594;13.526;2023-03-13T09:28:54;1.40;;;1.30;;
17363;SDS011;8799;43.594;13.526;2023-03-13T09:31:23;3.67;;;1.53;;
17363;SDS011;8799;43.594;13.526;2023-03-13T09:33:52;3.03;;;1.73;;
17363;SDS011;8799;43.594;13.526;2023-03-13T09:36:20;2.07;;;1.50;;
17363;SDS011;8799;43.594;13.526;2023-03-13T09:38:50;3.53;;;1.70;;
17363;SDS011;8799;43.594;13.526;2023-03-13T09:41:20;2.60;;;1.80;;
17363;SDS011;8799;43.594;13.526;2023-03-13T09:43:54;3.87;;;1.57;;
17363;SDS011;8799;43.594;13.526;2023-03-13T09:46:28;3.20;;;1.47;;
17363;SDS011;8799;43.594;13.526;2023-03-13T09:49:03;1.97;;;1.40;;
17363;SDS011;8799;43.594;13.526;2023-03-13T09:51:36;3.80;;;1.53;;
17363;SDS011;8799;43.594;13.526;2023-03-13T09:54:07;2.40;;;1.33;;
17363;SDS011;8799;43.594;13.526;2023-03-13T09:56:43;1.87;;;1.40;;
17363;SDS011;8799;43.594;13.526;2023-03-13T09:59:18;2.17;;;1.60;;
17363;SDS011;8799;43.594;13.526;2023-03-13T10:01:50;2.50;;;1.50;;
17363;SDS011;8799;43.594;13.526;2023-03-13T10:04:26;3.10;;;1.80;;
17363;SDS011;8799;43.594;13.526;2023-03-13T10:06:58;3.70;;;1.60;;
17363;SDS011;8799;43.594;13.526;2023-03-13T10:09:27;1.60;;;1.17;;
17363;SDS011;8799;43.594;13.526;2023-03-13T10:11:59;2.93;;;1.87;;
17363;SDS011;8799;43.594;13.526;2023-03-13T10:14:36;2.30;;;1.60;;
17363;SDS011;8799;43.594;13.526;2023-03-13T10:17:12;3.00;;;1.63;;
17363;SDS011;8799;43.594;13.526;2023-03-13T10:19:53;2.23;;;1.50;;
17363;SDS011;8799;43.594;13.526;2023-03-13T10:22:24;6.17;;;1.43;;
17363;SDS011;8799;43.594;13.526;2023-03-13T10:24:55;2.43;;;1.47;;
17363;SDS011;8799;43.594;13.526;2023-03-13T10:27:26;2.80;;;1.50;;
17363;SDS011;8799;43.594;13.526;2023-03-13T10:29:56;2.03;;;1.37;;
17363;SDS011;8799;43.594;13.526;2023-03-13T10:32:26;2.97;;;1.33;;
17363;SDS011;8799;43.594;13.526;2023-03-13T10:34:55;3.83;;;1.60;;
17363;SDS011;8799;43.594;13.526;2023-03-13T10:37:25;2.47;;;1.50;;
17363;SDS011;8799;43.594;13.526;2023-03-13T10:39:54;1.70;;;1.30;;
17363;SDS011;8799;43.594;13.526;2023-03-13T10:42:39;3.13;;;1.23;;
17363;SDS011;8799;43.594;13.526;2023-03-13T10:45:14;2.80;;;1.53;;
17363;SDS011;8799;43.594;13.526;2023-03-13T10:47:44;3.70;;;1.70;;
17363;SDS011;8799;43.594;13.526;2023-03-13T10:50:21;2.40;;;1.60;;
17363;SDS011;8799;43.594;13.526;2023-03-13T10:52:52;4.73;;;1.80;;
17363;SDS011;8799;43.594;13.526;2023-03-13T10:55:20;3.60;;;1.70;;
17363;SDS011;8799;43.594;13.526;2023-03-13T10:57:51;1.90;;;1.20;;
17363;SDS011;8799;43.594;13.526;2023-03-13T11:00:33;2.33;;;1.50;;
17363;SDS011;8799;43.594;13.526;2023-03-13T11:03:04;3.03;;;1.60;;
17363;SDS011;8799;43.594;13.526;2023-03-13T11:05:44;1.87;;;1.50;;
17363;SDS011;8799;43.594;13.526;2023-03-13T11:08:22;1.87;;;1.50;;
17363;SDS011;8799;43.594;13.526;2023-03-13T11:10:53;3.33;;;2.03;;
17363;SDS011;8799;43.594;13.526;2023-03-13T11:13:30;2.27;;;1.30;;
17363;SDS011;8799;43.594;13.526;2023-03-13T11:16:04;2.07;;;1.50;;
17363;SDS011;8799;43.594;13.526;2023-03-13T11:18:44;2.30;;;1.50;;
17363;SDS011;8799;43.594;13.526;2023-03-13T11:21:26;2.93;;;1.40;;
17363;SDS011;8799;43.594;13.526;2023-03-13T11:24:03;1.53;;;1.37;;
17363;SDS011;8799;43.594;13.526;2023-03-13T11:26:36;2.03;;;1.30;;
17363;SDS011;8799;43.594;13.526;2023-03-13T11:29:08;2.80;;;1.50;;
17363;SDS011;8799;43.594;13.526;2023-03-13T11:31:47;4.17;;;1.73;;
17363;SDS011;8799;43.594;13.526;2023-03-13T11:34:21;1.63;;;1.50;;
17363;SDS011;8799;43.594;13.526;2023-03-13T11:36:54;1.70;;;1.30;;
17363;SDS011;8799;43.594;13.526;2023-03-13T11:39:41;2.33;;;1.60;;
17363;SDS011;8799;43.594;13.526;2023-03-13T11:42:25;6.60;;;1.70;;
17363;SDS011;8799;43.594;13.526;2023-03-13T11:45:05;2.30;;;1.50;;
17363;SDS011;8799;43.594;13.526;2023-03-13T11:47:44;2.60;;;1.50;;
17363;SDS011;8799;43.594;13.526;2023-03-13T11:50:30;3.27;;;1.50;;
17363;SDS011;8799;43.594;13.526;2023-03-13T11:53:06;3.33;;;1.47;;
17363;SDS011;8799;43.594;13.526;2023-03-13T11:55:49;3.17;;;1.83;;
17363;SDS011;8799;43.594;13.526;2023-03-13T12:01:17;3.83;;;1.50;;
17363;SDS011;8799;43.594;13.526;2023-03-13T12:03:53;3.37;;;1.57;;
17363;SDS011;8799;43.594;13.526;2023-03-13T12:06:25;2.23;;;1.30;;
17363;SDS011;8799;43.594;13.526;2023-03-13T12:08:58;1.43;;;1.30;;
17363;SDS011;8799;43.594;13.526;2023-03-13T12:11:32;1.93;;;1.30;;
17363;SDS011;8799;43.594;13.526;2023-03-13T12:14:08;4.20;;;1.43;;
17363;SDS011;8799;43.594;13.526;2023-03-13T12:16:43;4.50;;;1.40;;
17363;SDS011;8799;43.594;13.526;2023-03-13T12:19:16;2.87;;;1.27;;
17363;SDS011;8799;43.594;13.526;2023-03-13T12:21:48;3.17;;;1.40;;
17363;SDS011;8799;43.594;13.526;2023-03-13T12:24:20;4.30;;;1.40;;
17363;SDS011;8799;43.594;13.526;2023-03-13T12:26:53;3.00;;;1.70;;
17363;SDS011;8799;43.594;13.526;2023-03-13T12:29:27;1.63;;;1.40;;
17363;SDS011;8799;43.594;13.526;2023-03-13T12:32:06;1.57;;;1.30;;
17363;SDS011;8799;43.594;13.526;2023-03-13T12:34:44;3.00;;;1.27;;
17363;SDS011;8799;43.594;13.526;2023-03-13T12:37:20;1.17;;;1.07;;
17363;SDS011;8799;43.594;13.526;2023-03-13T12:39:53;1.77;;;1.40;;
17363;SDS011;8799;43.594;13.526;2023-03-13T12:42:30;4.00;;;1.57;;
17363;SDS011;8799;43.594;13.526;2023-03-13T12:45:09;1.97;;;1.30;;
17363;SDS011;8799;43.594;13.526;2023-03-13T12:47:49;1.73;;;1.40;;
17363;SDS011;8799;43.594;13.526;2023-03-13T12:51:00;1.60;;;1.47;;
17363;SDS011;8799;43.594;13.526;2023-03-13T12:53:47;1.53;;;1.43;;
17363;SDS011;8799;43.594;13.526;2023-03-13T12:56:32;1.77;;;1.33;;
17363;SDS011;8799;43.594;13.526;2023-03-13T12:59:09;2.73;;;1.47;;
17363;SDS011;8799;43.594;13.526;2023-03-13T13:01:41;1.70;;;1.10;;
17363;SDS011;8799;43.594;13.526;2023-03-13T13:04:12;3.00;;;1.57;;
17363;SDS011;8799;43.594;13.526;2023-03-13T13:06:54;5.83;;;1.60;;
17363;SDS011;8799;43.594;13.526;2023-03-13T13:09:29;2.10;;;1.37;;
17363;SDS011;8799;43.594;13.526;2023-03-13T13:11:59;2.63;;;1.40;;
17363;SDS011;8799;43.594;13.526;2023-03-13T13:17:34;6.67;;;1.30;;
17363;SDS011;8799;43.594;13.526;2023-03-13T13:20:30;3.77;;;1.40;;
17363;SDS011;8799;43.594;13.526;2023-03-13T13:32:30;4.67;;;1.37;;
17363;SDS011;8799;43.594;13.526;2023-03-13T13:35:04;2.93;;;1.60;;
17363;SDS011;8799;43.594;13.526;2023-03-13T13:37:45;1.47;;;1.03;;
17363;SDS011;8799;43.594;13.526;2023-03-13T13:40:28;4.10;;;1.50;;
17363;SDS011;8799;43.594;13.526;2023-03-13T13:42:58;6.47;;;1.30;;
17363;SDS011;8799;43.594;13.526;2023-03-13T13:45:30;4.87;;;1.30;;
17363;SDS011;8799;43.594;13.526;2023-03-13T13:53:59;3.00;;;1.67;;
17363;SDS011;8799;43.594;13.526;2023-03-13T13:56:37;4.73;;;1.30;;
17363;SDS011;8799;43.594;13.526;2023-03-13T13:59:21;1.63;;;1.07;;
17363;SDS011;8799;43.594;13.526;2023-03-13T14:04:55;3.30;;;1.20;;
17363;SDS011;8799;43.594;13.526;2023-03-13T14:07:29;2.43;;;1.30;;
17363;SDS011;8799;43.594;13.526;2023-03-13T14:10:14;2.30;;;1.23;;
17363;SDS011;8799;43.594;13.526;2023-03-13T14:12:55;4.47;;;1.30;;
17363;SDS011;8799;43.594;13.526;2023-03-13T14:15:24;1.47;;;1.13;;
17363;SDS011;8799;43.594;13.526;2023-03-13T14:17:52;4.40;;;1.20;;
17363;SDS011;8799;43.594;13.526;2023-03-13T14:20:22;1.87;;;1.20;;
17363;SDS011;8799;43.594;13.526;2023-03-13T14:22:53;1.77;;;1.10;;
17363;SDS011;8799;43.594;13.526;2023-03-13T14:25:23;2.67;;;1.20;;
17363;SDS011;8799;43.594;13.526;2023-03-13T14:27:54;2.03;;;1.00;;
17363;SDS011;8799;43.594;13.526;2023-03-13T14:30:21;1.73;;;1.10;;
17363;SDS011;8799;43.594;13.526;2023-03-13T14:32:51;1.83;;;1.27;;
17363;SDS011;8799;43.594;13.526;2023-03-13T14:35:19;5.10;;;1.40;;
17363;SDS011;8799;43.594;13.526;2023-03-13T14:37:49;2.37;;;1.07;;
17363;SDS011;8799;43.594;13.526;2023-03-13T14:40:23;2.03;;;1.00;;
17363;SDS011;8799;43.594;13.526;2023-03-13T14:42:55;3.80;;;1.30;;
17363;SDS011;8799;43.594;13.526;2023-03-13T14:45:25;2.23;;;1.30;;
17363;SDS011;8799;43.594;13.526;2023-03-13T14:47:59;2.50;;;1.20;;
17363;SDS011;8799;43.594;13.526;2023-03-13T14:50:28;3.83;;;1.17;;
17363;SDS011;8799;43.594;13.526;2023-03-13T14:52:58;1.80;;;1.00;;
17363;SDS011;8799;43.594;13.526;2023-03-13T14:55:31;2.00;;;1.07;;
17363;SDS011;8799;43.594;13.526;2023-03-13T14:58:01;2.77;;;1.00;;
17363;SDS011;8799;43.594;13.526;2023-03-13T15:00:32;2.90;;;0.97;;
17363;SDS011;8799;43.594;13.526;2023-03-13T15:03:23;1.30;;;1.17;;
17363;SDS011;8799;43.594;13.526;2023-03-13T15:06:02;2.60;;;1.20;;
17363;SDS011;8799;43.594;13.526;2023-03-13T15:08:40;2.70;;;1.30;;
17363;SDS011;8799;43.594;13.526;2023-03-13T15:11:16;1.77;;;1.00;;
17363;SDS011;8799;43.594;13.526;2023-03-13T15:13:52;1.20;;;0.93;;
17363;SDS011;8799;43.594;13.526;2023-03-13T15:16:21;1.10;;;1.00;;
17363;SDS011;8799;43.594;13.526;2023-03-13T15:18:50;1.53;;;0.87;;
17363;SDS011;8799;43.594;13.526;2023-03-13T15:21:23;3.40;;;1.10;;
17363;SDS011;8799;43.594;13.526;2023-03-13T15:23:53;1.13;;;1.03;;
17363;SDS011;8799;43.594;13.526;2023-03-13T15:26:24;2.00;;;1.10;;
17363;SDS011;8799;43.594;13.526;2023-03-13T15:29:03;3.30;;;1.00;;
17363;SDS011;8799;43.594;13.526;2023-03-13T15:31:30;3.73;;;1.17;;
17363;SDS011;8799;43.594;13.526;2023-03-13T15:33:59;1.43;;;1.07;;
17363;SDS011;8799;43.594;13.526;2023-03-13T15:36:28;2.97;;;1.00;;